createdAt,value
2019-03-12T00:00:52.469Z,1.80
2019-03-12T00:03:21.427Z,1.80
2019-03-12T00:05:54.079Z,1.80
2019-03-12T00:08:23.034Z,1.80
2019-03-12T00:10:53.175Z,1.80
2019-03-12T00:13:22.132Z,1.80
2019-03-12T00:15:51.083Z,1.80
2019-03-12T00:18:20.015Z,1.90
2019-03-12T00:20:49.208Z,1.90
2019-03-12T00:23:18.069Z,1.90
2019-03-12T00:25:47.099Z,2.00
2019-03-12T00:28:16.126Z,2.00
2019-03-12T00:30:45.060Z,2.00
2019-03-12T00:33:13.937Z,2.00
2019-03-12T00:35:42.794Z,2.00
2019-03-12T00:38:11.690Z,2.00
2019-03-12T00:40:40.544Z,2.00
2019-03-12T00:43:09.378Z,2.00
2019-03-12T00:45:38.390Z,2.00
2019-03-12T00:48:07.291Z,2.00
2019-03-12T00:50:36.195Z,2.00
2019-03-12T00:53:05.189Z,2.00
2019-03-12T00:55:34.113Z,2.00
2019-03-12T00:58:03.022Z,2.00
2019-03-12T01:00:32.019Z,2.10
2019-03-12T01:03:00.914Z,2.10
2019-03-12T01:05:29.909Z,2.10
2019-03-12T01:07:59.143Z,2.10
2019-03-12T01:10:28.309Z,2.10
2019-03-12T01:12:57.461Z,2.10
2019-03-12T01:15:26.620Z,2.20
2019-03-12T01:17:55.737Z,2.20
2019-03-12T01:20:24.872Z,2.20
2019-03-12T01:22:53.969Z,2.20
2019-03-12T01:25:23.107Z,2.10
2019-03-12T01:27:52.251Z,2.10
2019-03-12T01:30:21.557Z,2.00
2019-03-12T01:32:51.711Z,2.00
2019-03-12T01:35:20.940Z,2.00
2019-03-12T01:37:50.070Z,2.00
2019-03-12T01:40:19.235Z,2.00
2019-03-12T01:42:48.372Z,2.00
2019-03-12T01:45:17.551Z,2.00
2019-03-12T01:47:46.727Z,2.10
2019-03-12T01:50:16.021Z,2.10
2019-03-12T01:52:45.158Z,2.20
2019-03-12T01:55:14.310Z,2.20
2019-03-12T01:57:43.519Z,2.20
2019-03-12T02:00:14.540Z,2.20
2019-03-12T02:02:43.764Z,2.20
2019-03-12T02:05:12.932Z,2.10
2019-03-12T02:07:42.052Z,2.10
2019-03-12T02:10:11.505Z,2.10
2019-03-12T02:12:40.706Z,2.20
2019-03-12T02:15:10.756Z,2.10
2019-03-12T02:17:39.943Z,2.10
2019-03-12T02:20:14.142Z,2.10
2019-03-12T02:22:43.256Z,2.10
2019-03-12T02:25:14.205Z,2.10
2019-03-12T02:27:43.337Z,2.10
2019-03-12T02:30:14.357Z,2.10
2019-03-12T02:32:44.774Z,2.00
2019-03-12T02:35:14.574Z,2.00
2019-03-12T02:37:43.726Z,2.00
2019-03-12T02:40:13.062Z,2.00
2019-03-12T02:42:42.264Z,1.90
2019-03-12T02:45:16.857Z,1.90
2019-03-12T02:47:46.348Z,1.90
2019-03-12T02:50:17.296Z,1.80
2019-03-12T02:52:46.542Z,1.70
2019-03-12T02:55:15.935Z,1.70
2019-03-12T02:57:45.099Z,1.70
2019-03-12T03:00:18.103Z,1.60
2019-03-12T03:02:47.317Z,1.60
2019-03-12T03:05:16.462Z,1.60
2019-03-12T03:08:00.560Z,1.60
2019-03-12T03:10:29.696Z,1.60
2019-03-12T03:12:58.818Z,1.70
2019-03-12T03:15:32.777Z,1.70
2019-03-12T03:18:01.963Z,1.70
2019-03-12T03:20:31.109Z,1.70
2019-03-12T03:23:00.345Z,1.80
2019-03-12T03:25:29.541Z,1.70
2019-03-12T03:27:58.696Z,1.70
2019-03-12T03:30:27.869Z,1.70
2019-03-12T03:32:57.029Z,1.70
2019-03-12T03:35:26.225Z,1.70
2019-03-12T03:37:55.453Z,1.70
2019-03-12T03:40:24.573Z,1.70
2019-03-12T03:42:53.703Z,1.70
2019-03-12T03:45:22.893Z,1.70
2019-03-12T03:47:52.010Z,1.70
2019-03-12T03:50:21.226Z,1.70
2019-03-12T03:52:50.551Z,1.70
2019-03-12T03:55:19.763Z,1.70
2019-03-12T03:57:48.890Z,1.70
2019-03-12T04:00:19.911Z,1.70
2019-03-12T04:02:49.149Z,1.70
2019-03-12T04:05:18.658Z,1.70
2019-03-12T04:07:47.782Z,1.70
2019-03-12T04:10:17.009Z,1.70
2019-03-12T04:12:46.133Z,1.80
2019-03-12T04:15:15.521Z,1.80
2019-03-12T04:17:44.832Z,1.80
2019-03-12T04:20:14.401Z,1.80
2019-03-12T04:22:43.544Z,1.80
2019-03-12T04:25:12.821Z,1.90
2019-03-12T04:27:42.029Z,1.90
2019-03-12T04:30:12.528Z,1.90
2019-03-12T04:32:41.655Z,1.80
2019-03-12T04:35:12.394Z,1.90
2019-03-12T04:37:41.576Z,1.90
2019-03-12T04:40:10.881Z,1.90
2019-03-12T04:42:40.111Z,1.90
2019-03-12T04:45:10.912Z,1.90
2019-03-12T04:47:40.044Z,1.90
2019-03-12T04:50:09.271Z,1.90
2019-03-12T04:52:38.425Z,1.90
2019-03-12T04:55:08.254Z,1.90
2019-03-12T04:57:37.382Z,1.90
2019-03-12T05:00:07.777Z,1.90
2019-03-12T05:02:36.929Z,1.90
2019-03-12T05:05:06.713Z,1.90
2019-03-12T05:07:35.903Z,1.90
2019-03-12T05:10:06.065Z,1.90
2019-03-12T05:12:35.201Z,1.90
2019-03-12T05:15:04.897Z,1.90
2019-03-12T05:17:35.091Z,1.90
2019-03-12T05:20:05.239Z,1.90
2019-03-12T05:22:34.351Z,1.90
2019-03-12T05:25:03.574Z,1.90
2019-03-12T05:27:32.768Z,1.90
2019-03-12T05:30:02.030Z,1.90
2019-03-12T05:32:31.160Z,1.90
2019-03-12T05:35:00.444Z,1.90
2019-03-12T05:37:29.635Z,1.90
2019-03-12T05:39:58.946Z,1.90
2019-03-12T05:42:35.750Z,1.90
2019-03-12T05:45:05.289Z,2.00
2019-03-12T05:47:34.418Z,2.00
2019-03-12T05:50:03.633Z,2.00
2019-03-12T05:52:32.769Z,2.00
2019-03-12T05:55:01.887Z,2.10
2019-03-12T05:57:31.014Z,2.10
2019-03-12T06:00:00.357Z,2.10
2019-03-12T06:02:29.564Z,2.10
2019-03-12T06:04:58.680Z,2.10
2019-03-12T06:07:27.882Z,2.20
2019-03-12T06:09:57.338Z,2.20
2019-03-12T06:12:26.448Z,2.20
2019-03-12T06:14:55.576Z,2.20
2019-03-12T06:17:24.763Z,2.30
2019-03-12T06:19:53.948Z,2.30
2019-03-12T06:22:23.165Z,2.40
2019-03-12T06:24:52.280Z,2.40
2019-03-12T06:27:21.405Z,2.50
2019-03-12T06:29:50.664Z,2.60
2019-03-12T06:32:41.888Z,2.60
2019-03-12T06:35:32.800Z,2.70
2019-03-12T06:38:08.113Z,2.80
2019-03-12T06:40:55.049Z,2.80
2019-03-12T06:43:49.337Z,2.90
2019-03-12T06:46:28.745Z,3.00
2019-03-12T06:49:07.705Z,3.20
2019-03-12T06:52:05.136Z,3.30
2019-03-12T06:54:52.242Z,3.50
2019-03-12T06:57:36.715Z,3.70
2019-03-12T07:00:24.343Z,3.90
2019-03-12T07:03:05.611Z,4.10
2019-03-12T07:05:47.771Z,4.20
2019-03-12T07:08:34.956Z,4.20
2019-03-12T07:11:11.163Z,4.30
2019-03-12T07:13:57.970Z,4.40
2019-03-12T07:17:01.640Z,4.50
2019-03-12T07:19:55.006Z,4.50
2019-03-12T07:22:32.591Z,4.60
2019-03-12T07:25:09.996Z,4.70
2019-03-12T07:27:47.815Z,4.80
2019-03-12T07:30:30.013Z,4.90
2019-03-12T07:34:08.117Z,5.10
2019-03-12T07:37:08.664Z,5.10
2019-03-12T07:40:00.088Z,5.10
2019-03-12T07:42:49.956Z,4.90
2019-03-12T07:45:27.132Z,4.90
2019-03-12T07:48:03.811Z,5.00
2019-03-12T07:50:54.854Z,4.90
2019-03-12T07:53:32.029Z,4.70
2019-03-12T07:56:29.284Z,4.60
2019-03-12T07:59:16.081Z,4.50
2019-03-12T08:02:10.573Z,4.50
2019-03-12T08:04:58.827Z,4.50
2019-03-12T08:07:45.989Z,4.50
2019-03-12T08:10:33.912Z,4.60
2019-03-12T08:13:20.904Z,4.80
2019-03-12T08:16:09.067Z,5.00
2019-03-12T08:18:56.647Z,5.00
2019-03-12T08:21:44.213Z,5.20
2019-03-12T08:24:38.183Z,5.40
2019-03-12T08:27:29.435Z,5.40
2019-03-12T08:30:16.412Z,5.30
2019-03-12T08:33:02.595Z,5.30
2019-03-12T08:35:39.591Z,5.30
2019-03-12T08:38:46.168Z,5.30
2019-03-12T08:41:32.766Z,5.40
2019-03-12T08:44:06.678Z,5.50
2019-03-12T08:47:12.920Z,5.70
2019-03-12T08:49:50.563Z,5.80
2019-03-12T08:52:44.851Z,5.80
2019-03-12T08:55:34.195Z,6.10
2019-03-12T08:58:31.264Z,6.20
2019-03-12T09:01:18.033Z,6.50
2019-03-12T09:04:05.104Z,7.00
2019-03-12T09:06:59.555Z,7.40
2019-03-12T09:09:47.781Z,7.60
2019-03-12T09:12:28.998Z,7.40
2019-03-12T09:15:20.307Z,7.30
2019-03-12T09:18:17.871Z,7.30
2019-03-12T09:20:58.432Z,7.50
2019-03-12T09:23:49.633Z,7.80
2019-03-12T09:26:37.790Z,7.70
2019-03-12T09:29:13.249Z,7.70
2019-03-12T09:31:51.967Z,7.90
2019-03-12T09:34:33.964Z,7.90
2019-03-12T09:37:25.090Z,7.90
2019-03-12T09:40:12.081Z,7.80
2019-03-12T09:43:03.291Z,7.90
2019-03-12T09:45:50.111Z,8.00
2019-03-12T09:48:44.375Z,8.10
2019-03-12T09:51:18.101Z,8.20
2019-03-12T09:54:07.446Z,7.90
2019-03-12T09:56:54.787Z,7.70
2019-03-12T09:59:37.663Z,7.70
2019-03-12T10:02:25.817Z,7.90
2019-03-12T10:05:16.943Z,8.00
2019-03-12T10:07:59.892Z,8.10
2019-03-12T10:10:41.205Z,8.10
2019-03-12T10:13:25.836Z,8.00
2019-03-12T10:16:14.007Z,8.10
2019-03-12T10:19:08.503Z,7.90
2019-03-12T10:21:48.021Z,7.80
2019-03-12T10:24:36.159Z,7.50
2019-03-12T10:27:27.207Z,7.10
2019-03-12T10:30:24.768Z,6.80
2019-03-12T10:33:02.451Z,6.50
2019-03-12T10:35:39.207Z,6.30
2019-03-12T10:39:02.499Z,6.10
2019-03-12T10:41:40.348Z,6.00
2019-03-12T10:44:18.083Z,5.90
2019-03-12T10:46:52.420Z,5.90
2019-03-12T10:49:21.554Z,6.10
2019-03-12T10:51:50.696Z,6.40
2019-03-12T10:54:19.814Z,6.70
2019-03-12T10:56:48.956Z,6.90
2019-03-12T10:59:18.094Z,7.00
2019-03-12T11:01:47.208Z,7.10
2019-03-12T11:04:16.340Z,7.10
2019-03-12T11:06:45.561Z,7.10
2019-03-12T11:09:14.684Z,7.30
2019-03-12T11:11:43.955Z,7.30
2019-03-12T11:14:13.159Z,7.30
2019-03-12T11:16:42.351Z,7.40
2019-03-12T11:19:11.578Z,7.30
2019-03-12T11:21:40.713Z,7.10
2019-03-12T11:24:09.902Z,7.20
2019-03-12T11:26:39.113Z,7.30
2019-03-12T11:29:08.265Z,7.30
2019-03-12T11:31:37.507Z,7.40
2019-03-12T11:34:06.724Z,7.40
2019-03-12T11:36:36.034Z,7.50
2019-03-12T11:39:06.046Z,7.80
2019-03-12T11:41:35.300Z,7.80
2019-03-12T11:44:04.782Z,7.90
2019-03-12T11:46:43.249Z,8.00
2019-03-12T11:49:04.863Z,8.00
2019-03-12T11:51:33.993Z,8.20
2019-03-12T11:54:03.204Z,8.20
2019-03-12T11:56:32.484Z,8.30
2019-03-12T11:59:01.689Z,8.50
2019-03-12T12:01:30.941Z,8.40
2019-03-12T12:04:00.261Z,8.40
2019-03-12T12:06:29.500Z,8.50
2019-03-12T12:08:58.673Z,8.60
2019-03-12T12:11:27.852Z,8.60
2019-03-12T12:13:56.969Z,8.70
2019-03-12T12:16:26.131Z,8.70
2019-03-12T12:18:55.278Z,8.70
2019-03-12T12:21:24.417Z,8.80
2019-03-12T12:23:53.577Z,8.90
2019-03-12T12:26:22.720Z,8.90
2019-03-12T12:28:51.924Z,8.90
2019-03-12T12:31:21.102Z,8.90
2019-03-12T12:33:50.256Z,8.80
2019-03-12T12:36:19.377Z,8.80
2019-03-12T12:38:48.510Z,8.80
2019-03-12T12:41:17.654Z,8.80
2019-03-12T12:43:46.801Z,8.90
2019-03-12T12:46:15.947Z,9.00
2019-03-12T12:48:45.146Z,8.90
2019-03-12T12:51:14.430Z,8.90
2019-03-12T12:53:43.554Z,8.90
2019-03-12T12:56:12.772Z,8.90
2019-03-12T12:58:41.901Z,8.80
2019-03-12T13:01:11.110Z,9.00
2019-03-12T13:03:40.229Z,9.10
2019-03-12T13:06:09.429Z,9.20
2019-03-12T13:08:38.632Z,9.20
2019-03-12T13:11:07.769Z,9.10
2019-03-12T13:13:36.970Z,9.00
2019-03-12T13:16:06.088Z,9.00
2019-03-12T13:18:35.297Z,9.10
2019-03-12T13:21:04.424Z,9.20
2019-03-12T13:23:36.053Z,9.30
2019-03-12T13:26:04.481Z,9.40
2019-03-12T13:28:33.701Z,9.40
2019-03-12T13:31:02.906Z,9.50
2019-03-12T13:33:32.046Z,9.50
2019-03-12T13:36:01.246Z,9.50
2019-03-12T13:38:44.844Z,9.60
2019-03-12T13:41:03.105Z,9.60
2019-03-12T13:43:32.186Z,9.60
2019-03-12T13:46:01.361Z,9.60
2019-03-12T13:48:30.672Z,9.60
2019-03-12T13:50:59.887Z,9.50
2019-03-12T13:53:29.258Z,9.50
2019-03-12T13:55:58.781Z,9.50
2019-03-12T13:58:27.935Z,9.60
2019-03-12T14:00:57.058Z,9.60
2019-03-12T14:03:26.176Z,9.60
2019-03-12T14:05:55.323Z,9.80
2019-03-12T14:08:24.428Z,9.70
2019-03-12T14:10:53.648Z,9.70
2019-03-12T14:13:23.364Z,9.80
2019-03-12T14:15:52.503Z,9.80
2019-03-12T14:18:21.632Z,9.90
2019-03-12T14:20:53.382Z,10.00
2019-03-12T14:23:46.135Z,10.00
2019-03-12T14:26:15.419Z,9.90
2019-03-12T14:28:44.563Z,9.80
2019-03-12T14:31:13.685Z,9.80
2019-03-12T14:33:42.976Z,9.80
2019-03-12T14:36:12.199Z,9.80
2019-03-12T14:38:41.332Z,9.80
2019-03-12T14:41:10.560Z,9.80
2019-03-12T14:43:39.801Z,9.80
2019-03-12T14:46:08.995Z,9.80
2019-03-12T14:49:01.105Z,9.80
2019-03-12T14:51:36.025Z,9.70
2019-03-12T14:54:05.668Z,9.60
2019-03-12T14:56:34.838Z,9.60
2019-03-12T14:59:04.599Z,9.50
2019-03-12T15:01:33.856Z,9.40
2019-03-12T15:04:03.158Z,9.50
2019-03-12T15:06:32.284Z,9.50
2019-03-12T15:09:01.446Z,9.50
2019-03-12T15:11:30.608Z,9.40
2019-03-12T15:13:59.796Z,9.40
2019-03-12T15:16:29.065Z,9.50
2019-03-12T15:18:58.276Z,9.60
2019-03-12T15:21:27.412Z,9.50
2019-03-12T15:23:56.524Z,9.30
2019-03-12T15:26:25.683Z,9.10
2019-03-12T15:28:54.897Z,9.00
2019-03-12T15:31:24.979Z,8.80
2019-03-12T15:33:54.198Z,8.80
2019-03-12T15:36:23.459Z,8.80
2019-03-12T15:38:52.721Z,8.80
2019-03-12T15:41:22.054Z,8.90
2019-03-12T15:43:51.230Z,9.00
2019-03-12T15:46:20.450Z,9.10
2019-03-12T15:48:49.607Z,9.20
2019-03-12T15:51:18.740Z,9.20
2019-03-12T15:53:47.916Z,9.30
2019-03-12T15:56:17.051Z,9.30
2019-03-12T15:58:46.270Z,9.30
2019-03-12T16:01:15.441Z,9.40
2019-03-12T16:03:45.100Z,9.40
2019-03-12T16:06:14.264Z,9.40
2019-03-12T16:08:43.488Z,9.30
2019-03-12T16:11:12.723Z,9.30
2019-03-12T16:13:41.910Z,9.20
2019-03-12T16:16:11.136Z,9.20
2019-03-12T16:18:40.281Z,9.10
2019-03-12T16:21:09.465Z,9.10
2019-03-12T16:23:38.692Z,9.00
2019-03-12T16:26:07.916Z,8.90
2019-03-12T16:28:37.106Z,8.70
2019-03-12T16:31:06.346Z,8.60
2019-03-12T16:33:35.572Z,8.60
2019-03-12T16:36:04.740Z,8.50
2019-03-12T16:38:33.890Z,8.40
2019-03-12T16:41:03.016Z,8.30
2019-03-12T16:43:32.187Z,8.20
2019-03-12T16:46:01.529Z,8.20
2019-03-12T16:48:30.684Z,8.00
2019-03-12T16:50:59.921Z,7.90
2019-03-12T16:53:29.138Z,7.90
2019-03-12T16:55:58.437Z,7.80
2019-03-12T16:58:27.660Z,7.60
2019-03-12T17:00:56.808Z,7.50
2019-03-12T17:03:26.011Z,7.50
2019-03-12T17:05:55.217Z,7.40
2019-03-12T17:08:24.364Z,7.30
2019-03-12T17:10:58.452Z,7.20
2019-03-12T17:13:24.347Z,7.10
2019-03-12T17:15:54.912Z,7.00
2019-03-12T17:18:24.402Z,6.90
2019-03-12T17:20:53.535Z,6.80
2019-03-12T17:23:22.691Z,6.80
2019-03-12T17:25:51.857Z,6.80
2019-03-12T17:28:21.014Z,6.80
2019-03-12T17:30:50.141Z,6.80
2019-03-12T17:33:19.392Z,6.70
2019-03-12T17:35:48.863Z,6.60
2019-03-12T17:38:18.070Z,6.50
2019-03-12T17:40:47.289Z,6.40
2019-03-12T17:43:16.438Z,6.30
2019-03-12T17:45:46.317Z,6.20
2019-03-12T17:48:15.563Z,6.20
2019-03-12T17:50:44.712Z,6.20
2019-03-12T17:53:13.849Z,6.20
2019-03-12T17:55:42.988Z,6.10
2019-03-12T17:58:12.109Z,6.00
2019-03-12T18:00:43.243Z,5.90
2019-03-12T18:03:12.393Z,5.90
2019-03-12T18:05:41.530Z,5.80
2019-03-12T18:08:10.773Z,5.70
2019-03-12T18:10:39.903Z,5.60
2019-03-12T18:13:09.053Z,5.50
2019-03-12T18:15:38.210Z,5.40
2019-03-12T18:18:07.455Z,5.20
2019-03-12T18:20:36.594Z,5.20
2019-03-12T18:23:05.729Z,5.20
2019-03-12T18:25:34.924Z,5.10
2019-03-12T18:28:04.187Z,5.20
2019-03-12T18:30:33.361Z,5.10
2019-03-12T18:33:02.497Z,5.10
2019-03-12T18:35:31.896Z,5.10
2019-03-12T18:38:01.096Z,5.10
2019-03-12T18:40:30.351Z,5.10
2019-03-12T18:43:01.775Z,5.20
2019-03-12T18:45:31.025Z,5.20
2019-03-12T18:48:00.214Z,5.30
2019-03-12T18:50:29.350Z,5.30
2019-03-12T18:52:58.505Z,5.40
2019-03-12T18:56:00.275Z,5.30
2019-03-12T18:58:29.496Z,5.30
2019-03-12T19:01:01.245Z,5.30
2019-03-12T19:03:30.405Z,5.30
2019-03-12T19:05:59.556Z,5.20
2019-03-12T19:08:28.699Z,5.20
2019-03-12T19:10:57.926Z,5.00
2019-03-12T19:13:27.203Z,4.90
2019-03-12T19:15:56.337Z,4.90
2019-03-12T19:18:25.470Z,4.80
2019-03-12T19:20:54.626Z,4.80
2019-03-12T19:23:23.804Z,4.70
2019-03-12T19:25:53.020Z,4.70
2019-03-12T19:28:22.146Z,4.60
2019-03-12T19:30:52.952Z,4.50
2019-03-12T19:33:22.932Z,4.40
2019-03-12T19:35:52.155Z,4.30
2019-03-12T19:38:21.369Z,4.20
2019-03-12T19:40:50.507Z,4.10
2019-03-12T19:43:19.691Z,4.00
2019-03-12T19:45:48.920Z,4.00
2019-03-12T19:48:18.153Z,3.90
2019-03-12T19:50:47.372Z,3.90
2019-03-12T19:53:19.824Z,3.90
2019-03-12T19:55:49.149Z,3.90
2019-03-12T19:58:18.452Z,3.90
2019-03-12T20:00:48.673Z,4.00
2019-03-12T20:03:19.743Z,4.00
2019-03-12T20:05:49.048Z,4.00
2019-03-12T20:08:18.368Z,4.00
2019-03-12T20:11:31.554Z,4.00
2019-03-12T20:14:31.629Z,4.00
2019-03-12T20:17:44.801Z,4.00
2019-03-12T20:20:41.147Z,4.20
2019-03-12T20:23:47.358Z,4.10
2019-03-12T20:26:59.366Z,4.10
2019-03-12T20:30:05.017Z,4.00
2019-03-12T20:33:14.169Z,3.90
2019-03-12T20:37:08.301Z,3.80
2019-03-12T20:40:36.565Z,3.80
2019-03-12T20:43:41.985Z,3.90
2019-03-12T20:46:53.042Z,3.90
2019-03-12T20:50:02.914Z,3.90
2019-03-12T20:53:25.319Z,3.80
2019-03-12T20:56:57.154Z,3.80
2019-03-12T21:00:09.420Z,3.70
2019-03-12T21:03:15.336Z,3.70
2019-03-12T21:06:37.212Z,3.70
2019-03-12T21:09:48.918Z,3.60
2019-03-12T21:12:55.210Z,3.70
2019-03-12T21:15:52.996Z,3.60
2019-03-12T21:19:00.158Z,3.70
2019-03-12T21:22:13.794Z,3.70
2019-03-12T21:25:32.891Z,3.90
2019-03-12T21:47:39.694Z,4.70
2019-03-12T21:50:11.642Z,4.70
2019-03-12T21:52:45.358Z,4.80
2019-03-12T21:55:16.320Z,4.80
2019-03-12T22:00:36.041Z,5.00
2019-03-12T22:03:04.956Z,5.10
2019-03-12T22:05:33.874Z,5.10
2019-03-12T22:08:02.703Z,5.20
2019-03-12T22:10:31.736Z,5.30
2019-03-12T22:13:00.608Z,5.40
2019-03-12T22:15:30.109Z,5.50
2019-03-12T22:17:59.281Z,5.50
2019-03-12T22:20:28.265Z,5.60
2019-03-12T22:23:02.209Z,5.70
2019-03-12T22:25:31.059Z,5.70
2019-03-12T22:27:59.972Z,5.80
2019-03-12T22:30:29.311Z,5.90
2019-03-12T22:32:59.520Z,5.90
2019-03-12T22:35:28.395Z,6.00
2019-03-12T22:37:57.438Z,6.00
2019-03-12T22:40:26.390Z,6.10
2019-03-12T22:42:55.440Z,6.10
2019-03-12T22:45:24.449Z,6.20
2019-03-12T22:47:53.372Z,6.20
2019-03-12T22:50:24.654Z,6.30
2019-03-12T22:52:53.546Z,6.30
2019-03-12T22:55:22.544Z,6.30
2019-03-12T22:57:51.380Z,6.30
2019-03-12T23:00:21.599Z,6.20
2019-03-12T23:02:50.450Z,6.20
2019-03-12T23:05:19.374Z,6.10
2019-03-12T23:07:48.234Z,6.00
2019-03-12T23:10:18.205Z,6.00
2019-03-12T23:12:47.292Z,6.00
2019-03-12T23:15:16.476Z,6.00
2019-03-12T23:17:45.401Z,6.00
2019-03-12T23:20:15.295Z,6.00
2019-03-12T23:22:44.322Z,5.90
2019-03-12T23:25:13.228Z,5.90
2019-03-12T23:27:42.120Z,5.90
2019-03-12T23:30:12.522Z,5.90
2019-03-12T23:32:41.411Z,5.90
2019-03-12T23:35:10.595Z,6.00
2019-03-12T23:37:39.572Z,5.90
2019-03-12T23:40:08.604Z,5.90
2019-03-12T23:42:37.587Z,5.90
2019-03-12T23:45:07.127Z,5.90
2019-03-12T23:47:36.081Z,5.90
2019-03-12T23:50:06.104Z,5.90
2019-03-12T23:52:35.027Z,5.90
2019-03-12T23:55:04.427Z,5.90
2019-03-12T23:57:33.335Z,6.00
